Time;durP1;ratioP1;P1;durP2;ratioP2;P2;SDS_P1;SDS_P2;PMS_P1;PMS_P2;Temp;Humidity;BMP_temperature;BMP_pressure;BME280_temperature;BME280_humidity;BME280_pressure;Samples;Min_cycle;Max_cycle;Signal;HPM_P1;HPM_P2
2021/03/24 00:00:44;;;;;;;8.32;5.15;;;20.50;34.20;;;;;;5093951;28;20107;-60
2021/03/24 00:03:10;;;;;;;8.45;4.85;;;20.60;34.20;;;;;;5093787;28;20476;-60
2021/03/24 00:05:37;;;;;;;10.15;5.97;;;20.60;34.20;;;;;;5094200;28;20024;-61
2021/03/24 00:08:04;;;;;;;9.60;5.13;;;20.50;34.20;;;;;;5094352;28;20059;-60
2021/03/24 00:10:31;;;;;;;10.20;4.85;;;20.50;34.20;;;;;;5094035;28;20158;-60
2021/03/24 00:12:58;;;;;;;10.43;6.47;;;20.50;34.20;;;;;;5093896;28;20405;-60
2021/03/24 00:15:25;;;;;;;9.20;5.55;;;20.50;34.20;;;;;;5093913;28;20047;-60
2021/03/24 00:17:51;;;;;;;9.82;5.57;;;20.50;34.20;;;;;;5093752;28;20039;-60
2021/03/24 00:20:20;;;;;;;9.38;5.22;;;20.50;34.20;;;;;;5093641;28;20392;-61
2021/03/24 00:22:46;;;;;;;9.57;5.55;;;20.50;34.20;;;;;;5093732;28;20089;-61
2021/03/24 00:25:14;;;;;;;10.65;5.50;;;20.50;34.20;;;;;;5094014;28;20048;-60
2021/03/24 00:27:42;;;;;;;9.60;5.30;;;20.50;34.20;;;;;;5093696;28;20034;-60
2021/03/24 00:30:08;;;;;;;8.55;5.40;;;20.50;34.20;;;;;;5094112;28;20031;-60
2021/03/24 00:32:34;;;;;;;8.80;5.45;;;20.50;34.20;;;;;;5094011;28;20027;-60
2021/03/24 00:35:00;;;;;;;8.52;5.28;;;20.50;34.20;;;;;;5092482;28;20098;-60
2021/03/24 00:37:25;;;;;;;9.05;5.00;;;20.50;34.20;;;;;;5093674;28;20028;-60
2021/03/24 00:39:51;;;;;;;9.80;5.72;;;20.50;34.20;;;;;;5093556;28;20028;-60
2021/03/24 00:42:16;;;;;;;9.68;5.25;;;20.40;34.20;;;;;;5093552;28;20417;-60
2021/03/24 00:44:42;;;;;;;10.52;5.80;;;20.50;34.20;;;;;;5093236;28;20467;-60
2021/03/24 00:47:07;;;;;;;8.30;5.35;;;20.40;34.20;;;;;;5091949;28;20032;-60
2021/03/24 00:49:33;;;;;;;9.13;5.18;;;20.40;34.20;;;;;;5093345;28;20036;-60
2021/03/24 00:51:58;;;;;;;9.60;5.90;;;20.40;34.20;;;;;;5092016;28;20031;-60
2021/03/24 00:54:24;;;;;;;10.82;5.95;;;20.40;34.20;;;;;;5093430;28;20528;-60
2021/03/24 00:56:49;;;;;;;9.02;6.28;;;20.40;34.20;;;;;;5093501;28;20028;-60
2021/03/24 00:59:15;;;;;;;9.68;5.07;;;20.40;34.20;;;;;;5093210;28;20020;-60
2021/03/24 01:01:41;;;;;;;11.10;6.07;;;20.40;34.20;;;;;;5092828;28;20036;-60
2021/03/24 01:04:08;;;;;;;9.18;5.15;;;20.40;34.20;;;;;;5093368;28;20016;-60
2021/03/24 01:06:36;;;;;;;9.35;5.88;;;20.40;34.20;;;;;;5093282;28;20054;-60
2021/03/24 01:09:03;;;;;;;11.07;5.53;;;20.40;34.20;;;;;;5091828;28;20380;-60
2021/03/24 01:11:31;;;;;;;9.80;5.78;;;20.30;34.20;;;;;;5093392;28;20020;-60
2021/03/24 01:13:56;;;;;;;10.98;6.70;;;20.30;34.20;;;;;;5093277;28;20024;-60
2021/03/24 01:16:22;;;;;;;10.68;6.63;;;20.30;34.20;;;;;;5093447;28;20035;-60
2021/03/24 01:18:47;;;;;;;10.30;6.10;;;20.30;34.20;;;;;;5093187;28;20032;-61
2021/03/24 01:21:13;;;;;;;10.45;6.07;;;20.30;34.20;;;;;;5092742;28;20063;-60
2021/03/24 01:23:38;;;;;;;9.02;5.57;;;20.30;34.20;;;;;;5093012;28;20099;-60
2021/03/24 01:26:04;;;;;;;10.10;6.28;;;20.30;34.20;;;;;;5093184;28;20081;-60
2021/03/24 01:28:30;;;;;;;10.43;5.65;;;20.30;34.20;;;;;;5092957;28;20464;-61
2021/03/24 01:30:57;;;;;;;10.25;5.93;;;20.30;34.20;;;;;;5093406;28;20032;-60
2021/03/24 01:33:24;;;;;;;9.98;6.03;;;20.30;34.20;;;;;;5097030;28;20024;-60
2021/03/24 01:35:50;;;;;;;10.43;6.03;;;20.30;34.20;;;;;;5097265;28;20031;-60
2021/03/24 01:38:16;;;;;;;9.93;6.32;;;20.30;34.20;;;;;;5097085;28;20051;-60
2021/03/24 01:40:46;;;;;;;9.93;6.03;;;20.20;34.20;;;;;;5096724;28;20029;-60
2021/03/24 01:43:38;;;;;;;9.25;5.40;;;20.20;34.20;;;;;;5096489;28;20027;-60
2021/03/24 01:46:19;;;;;;;9.80;5.93;;;20.20;34.20;;;;;;5094090;28;20043;-60
2021/03/24 01:49:22;;;;;;;10.20;5.97;;;20.30;34.20;;;;;;5096758;28;20043;-60
2021/03/24 01:51:56;;;;;;;11.00;6.82;;;20.20;34.20;;;;;;5072903;28;20039;-60
2021/03/24 01:54:28;;;;;;;;;;;20.20;34.20;;;;;;5095980;28;20383;-60
2021/03/24 01:56:59;;;;;;;9.32;5.75;;;20.20;34.20;;;;;;5096775;28;19951;-60
2021/03/24 01:59:25;;;;;;;9.25;5.70;;;20.20;34.20;;;;;;5096574;28;20081;-60
2021/03/24 02:01:53;;;;;;;10.98;5.80;;;20.20;34.20;;;;;;5096493;28;20055;-60
2021/03/24 02:04:19;;;;;;;8.80;5.55;;;20.20;34.20;;;;;;5096143;28;20380;-60
2021/03/24 02:07:12;;;;;;;10.60;6.07;;;20.20;34.20;;;;;;5096450;28;20020;-60
2021/03/24 02:09:46;;;;;;;10.15;5.85;;;20.20;34.20;;;;;;5089888;28;20046;-60
2021/03/24 02:12:44;;;;;;;10.70;6.28;;;20.20;34.20;;;;;;5096414;28;20129;-60
2021/03/24 02:15:22;;;;;;;9.98;6.00;;;20.20;34.20;;;;;;5096482;28;20055;-61
2021/03/24 02:17:47;;;;;;;12.40;6.55;;;20.20;34.20;;;;;;5096278;28;20098;-60
2021/03/24 02:20:33;;;;;;;9.00;5.93;;;20.20;34.20;;;;;;5095839;28;20143;-61
2021/03/24 02:23:18;;;;;;;12.45;6.15;;;20.10;34.20;;;;;;5095917;28;20075;-61
2021/03/24 02:25:51;;;;;;;9.77;5.90;;;20.20;34.20;;;;;;5096669;28;20493;-60
2021/03/24 02:28:19;;;;;;;11.20;6.50;;;20.10;34.20;;;;;;5098294;28;20031;-61
2021/03/24 02:30:46;;;;;;;11.52;6.20;;;20.10;34.20;;;;;;5096072;28;20032;-60
2021/03/24 02:33:22;;;;;;;11.98;6.18;;;20.10;34.20;;;;;;5095818;28;20027;-61
2021/03/24 02:35:52;;;;;;;11.35;5.85;;;20.10;34.20;;;;;;5096255;28;20115;-60
2021/03/24 02:38:22;;;;;;;10.52;6.43;;;20.10;34.20;;;;;;5095750;28;20035;-61
2021/03/24 02:40:50;;;;;;;10.73;6.03;;;20.10;34.20;;;;;;5096031;28;20032;-61
2021/03/24 02:43:19;;;;;;;11.60;6.22;;;20.10;34.20;;;;;;5094584;28;20169;-61
2021/03/24 02:45:46;;;;;;;10.10;6.18;;;20.10;34.20;;;;;;5095499;28;20119;-61
2021/03/24 02:48:15;;;;;;;9.63;5.85;;;20.10;34.20;;;;;;5095530;28;20028;-60
2021/03/24 02:50:43;;;;;;;10.32;6.60;;;20.10;34.20;;;;;;5095525;28;20023;-61
2021/03/24 02:53:10;;;;;;;11.55;5.47;;;20.00;34.20;;;;;;5095524;28;20024;-60
2021/03/24 02:55:38;;;;;;;9.10;6.22;;;20.10;34.20;;;;;;5095514;28;20384;-60
2021/03/24 02:58:04;;;;;;;10.88;6.15;;;20.10;34.20;;;;;;5095380;28;20056;-61
2021/03/24 03:00:30;;;;;;;10.00;6.72;;;20.10;34.10;;;;;;5095083;28;20360;-61
2021/03/24 03:03:02;;;;;;;9.85;6.18;;;20.00;34.10;;;;;;5095442;28;20024;-61
2021/03/24 03:05:32;;;;;;;10.35;6.40;;;20.10;34.20;;;;;;5095697;28;20024;-61
2021/03/24 03:08:08;;;;;;;10.07;5.88;;;20.00;34.10;;;;;;5095322;28;20024;-61
2021/03/24 03:10:56;;;;;;;10.13;5.80;;;20.00;34.20;;;;;;5095163;28;20026;-61
2021/03/24 03:13:31;;;;;;;10.98;6.68;;;20.00;34.10;;;;;;5095452;28;20028;-61
2021/03/24 03:16:14;;;;;;;9.30;5.93;;;20.00;34.10;;;;;;5095081;28;20088;-60
2021/03/24 03:18:54;;;;;;;10.15;5.68;;;20.00;34.10;;;;;;5095014;28;20439;-60
2021/03/24 03:21:28;;;;;;;10.02;6.00;;;20.00;34.20;;;;;;5094480;28;20040;-61
2021/03/24 03:23:55;;;;;;;8.95;5.53;;;20.00;34.10;;;;;;5094749;28;20020;-61
2021/03/24 03:26:23;;;;;;;10.68;6.13;;;20.00;34.10;;;;;;5094839;28;20032;-61
2021/03/24 03:28:56;;;;;;;10.85;6.53;;;20.00;34.10;;;;;;5094618;28;20036;-61
2021/03/24 03:31:26;;;;;;;8.77;5.60;;;20.00;34.10;;;;;;5094816;28;20430;-61
2021/03/24 03:33:54;;;;;;;11.63;5.95;;;20.00;34.10;;;;;;5094655;28;20024;-61
2021/03/24 03:36:22;;;;;;;9.90;6.40;;;20.00;34.10;;;;;;5094605;28;20106;-60
2021/03/24 03:38:49;;;;;;;9.63;5.95;;;20.00;34.10;;;;;;5094736;28;20051;-60
2021/03/24 03:41:16;;;;;;;10.57;6.30;;;20.00;34.10;;;;;;5094638;28;20430;-60
2021/03/24 03:43:45;;;;;;;9.75;6.18;;;20.00;34.10;;;;;;5094644;28;20055;-61
2021/03/24 03:46:14;;;;;;;8.07;5.03;;;19.90;34.10;;;;;;5095106;28;20024;-61
2021/03/24 03:48:40;;;;;;;10.05;6.13;;;20.00;34.10;;;;;;5101114;28;20364;-61
2021/03/24 03:51:10;;;;;;;9.10;5.55;;;20.00;34.10;;;;;;5094904;28;20035;-60
2021/03/24 03:54:23;;;;;;;11.00;5.78;;;19.90;34.10;;;;;;5094677;28;20024;-61
2021/03/24 03:57:00;;;;;;;9.63;5.50;;;19.90;34.10;;;;;;5090667;28;20036;-60
2021/03/24 03:59:32;;;;;;;9.27;5.85;;;19.90;34.10;;;;;;5094744;28;20039;-61
2021/03/24 04:02:02;;;;;;;8.93;5.38;;;19.90;34.10;;;;;;5094037;28;20040;-61
2021/03/24 04:04:37;;;;;;;8.80;5.22;;;19.90;34.10;;;;;;5094426;28;20031;-61
2021/03/24 04:07:06;;;;;;;;;;;19.90;34.10;;;;;;5094631;28;20027;-61
2021/03/24 04:09:35;;;;;;;9.45;5.55;;;19.90;34.10;;;;;;5094508;28;19904;-61
2021/03/24 04:12:03;;;;;;;10.98;5.82;;;19.90;34.10;;;;;;5094154;28;20077;-61
2021/03/24 04:14:29;;;;;;;11.05;5.43;;;19.90;34.10;;;;;;5093978;28;20027;-61
2021/03/24 04:16:55;;;;;;;10.07;6.30;;;19.80;34.10;;;;;;5094302;28;20035;-60
2021/03/24 04:19:32;;;;;;;10.45;5.95;;;19.80;34.10;;;;;;5093777;28;20027;-61
2021/03/24 04:22:01;;;;;;;8.93;5.72;;;19.80;34.10;;;;;;5093867;28;20039;-62
2021/03/24 04:24:43;;;;;;;12.95;6.15;;;19.90;34.10;;;;;;5092243;28;20571;-60
2021/03/24 04:27:11;;;;;;;8.38;5.50;;;19.80;34.10;;;;;;5094018;28;20028;-60
2021/03/24 04:29:47;;;;;;;9.70;5.80;;;19.90;34.10;;;;;;5093613;28;20107;-60
2021/03/24 04:32:13;;;;;;;9.35;6.03;;;19.80;34.10;;;;;;5093594;28;20384;-60
2021/03/24 04:34:40;;;;;;;9.57;5.50;;;19.80;34.10;;;;;;5093970;28;20032;-60
2021/03/24 04:37:17;;;;;;;10.73;6.00;;;19.80;34.10;;;;;;5094047;28;20065;-60
2021/03/24 04:39:51;;;;;;;9.73;6.60;;;19.80;34.10;;;;;;5094060;28;20028;-60
2021/03/24 04:42:21;;;;;;;;;;;19.80;34.10;;;;;;5094813;28;20495;-60
2021/03/24 04:44:50;;;;;;;10.32;6.20;;;19.80;34.00;;;;;;5099460;28;19911;-61
2021/03/24 04:47:28;;;;;;;8.95;5.32;;;19.80;34.00;;;;;;5100219;28;20028;-61
2021/03/24 04:50:20;;;;;;;9.15;5.57;;;19.80;34.10;;;;;;5099363;28;20036;-61
2021/03/24 04:52:47;;;;;;;10.13;5.35;;;19.80;34.10;;;;;;5097768;28;20482;-61
2021/03/24 04:55:16;;;;;;;9.90;5.28;;;19.80;34.10;;;;;;5093749;28;20016;-60
2021/03/24 04:57:42;;;;;;;9.82;5.82;;;19.80;34.00;;;;;;5093464;28;20356;-61
2021/03/24 05:00:30;;;;;;;8.13;5.15;;;19.80;34.00;;;;;;5093778;28;20380;-60
2021/03/24 05:03:00;;;;;;;9.70;5.60;;;19.80;34.00;;;;;;5092530;28;20043;-60
2021/03/24 05:05:30;;;;;;;9.85;5.85;;;19.80;34.10;;;;;;5093360;28;20018;-61
2021/03/24 05:08:07;;;;;;;9.05;5.32;;;19.70;34.00;;;;;;5097445;28;20036;-60
2021/03/24 05:10:34;;;;;;;10.27;5.45;;;19.80;34.00;;;;;;5097423;28;20020;-60
2021/03/24 05:13:27;;;;;;;9.73;5.80;;;19.80;34.00;;;;;;5097371;28;20024;-61
2021/03/24 05:16:01;;;;;;;9.80;5.47;;;19.70;34.00;;;;;;5097022;28;20037;-60
2021/03/24 05:18:27;;;;;;;9.30;5.43;;;19.80;34.00;;;;;;5097459;28;20027;-60
2021/03/24 05:21:09;;;;;;;8.40;5.07;;;19.90;33.90;;;;;;5097487;28;20048;-60
2021/03/24 05:23:35;;;;;;;9.00;5.50;;;19.80;33.90;;;;;;5097373;28;20036;-60
2021/03/24 05:26:04;;;;;;;8.82;5.28;;;19.90;33.90;;;;;;5097244;28;20017;-61
2021/03/24 05:28:42;;;;;;;11.70;5.63;;;19.90;33.90;;;;;;5097069;28;20471;-61
2021/03/24 05:31:20;;;;;;;10.68;5.00;;;19.90;33.80;;;;;;5097326;28;20035;-60
2021/03/24 05:33:50;;;;;;;8.75;5.15;;;20.00;33.80;;;;;;5096980;28;20024;-61
2021/03/24 05:36:21;;;;;;;11.07;5.28;;;20.00;33.80;;;;;;5097055;28;20464;-61
2021/03/24 05:38:50;;;;;;;11.40;5.40;;;20.00;33.80;;;;;;5096743;28;20024;-61
2021/03/24 05:41:32;;;;;;;8.85;5.35;;;20.00;33.80;;;;;;5096812;28;20101;-61
2021/03/24 05:44:38;;;;;;;9.10;5.32;;;20.00;33.80;;;;;;5096513;28;20059;-61
2021/03/24 05:47:33;;;;;;;7.63;4.45;;;20.00;33.70;;;;;;5096824;28;20396;-61
2021/03/24 05:50:14;;;;;;;8.23;5.03;;;20.00;33.70;;;;;;5096601;28;20395;-60
2021/03/24 05:52:51;;;;;;;9.02;5.28;;;20.00;33.70;;;;;;5096740;28;20024;-61
2021/03/24 05:55:31;;;;;;;8.48;5.18;;;20.10;33.70;;;;;;5096499;28;20468;-61
2021/03/24 05:58:26;;;;;;;10.25;5.57;;;20.10;33.60;;;;;;5096580;28;20158;-61
2021/03/24 06:01:34;;;;;;;10.73;5.30;;;20.10;33.70;;;;;;5095007;28;20093;-61
2021/03/24 06:04:12;;;;;;;9.05;4.90;;;20.10;33.60;;;;;;5093207;28;20032;-61
2021/03/24 06:07:05;;;;;;;9.93;5.35;;;20.10;33.60;;;;;;5096501;28;20062;-61
2021/03/24 06:10:05;;;;;;;10.73;5.10;;;20.20;33.60;;;;;;5096538;28;20059;-61
2021/03/24 06:12:30;;;;;;;9.63;5.43;;;20.20;33.60;;;;;;5096375;28;20028;-61
2021/03/24 06:15:24;;;;;;;7.75;4.78;;;20.20;33.60;;;;;;5096133;28;20020;-61
2021/03/24 06:18:27;;;;;;;8.02;4.07;;;20.20;33.60;;;;;;5096287;28;20099;-61
2021/03/24 06:21:16;;;;;;;8.60;5.40;;;20.20;33.60;;;;;;5096063;28;20097;-60
2021/03/24 06:24:12;;;;;;;8.48;5.03;;;20.30;33.60;;;;;;5096408;28;20153;-62
2021/03/24 06:26:57;;;;;;;8.82;5.05;;;20.20;33.60;;;;;;5096630;28;20107;-61
2021/03/24 06:29:26;;;;;;;;;;;20.30;33.60;;;;;;5097249;28;20027;-61
2021/03/24 06:32:14;;;;;;;8.25;4.60;;;20.30;33.60;;;;;;5096505;28;19995;-60
2021/03/24 06:35:25;;;;;;;7.47;4.43;;;20.30;33.60;;;;;;5095729;28;20397;-61
2021/03/24 06:37:57;;;;;;;9.23;5.13;;;20.40;33.50;;;;;;5033303;28;20501;-61
2021/03/24 06:40:42;;;;;;;8.70;4.95;;;20.40;33.50;;;;;;5085212;28;20132;-60
2021/03/24 06:43:48;;;;;;;8.00;5.20;;;20.40;33.50;;;;;;5096087;28;20479;-60
2021/03/24 06:46:26;;;;;;;8.93;5.28;;;20.40;33.50;;;;;;5095395;28;20024;-61
2021/03/24 06:49:10;;;;;;;8.90;4.32;;;20.40;33.50;;;;;;5095510;28;20376;-61
2021/03/24 06:51:51;;;;;;;8.73;5.03;;;20.40;33.50;;;;;;5095797;28;20107;-61
2021/03/24 06:54:40;;;;;;;8.32;4.35;;;20.50;33.40;;;;;;5095459;28;20024;-61
2021/03/24 06:57:28;;;;;;;7.45;4.22;;;20.50;33.50;;;;;;5095448;28;20024;-66
2021/03/24 07:00:03;;;;;;;7.88;4.68;;;20.50;33.40;;;;;;5095373;28;20522;-61
2021/03/24 07:02:44;;;;;;;7.65;4.80;;;20.50;33.40;;;;;;5095132;28;20396;-61
2021/03/24 07:05:43;;;;;;;7.40;4.22;;;20.50;33.40;;;;;;5095824;28;20024;-61
2021/03/24 07:08:35;;;;;;;8.18;4.90;;;20.50;33.40;;;;;;5095067;28;20054;-61
2021/03/24 07:11:22;;;;;;;7.60;4.20;;;20.50;33.40;;;;;;5095018;28;20487;-61
2021/03/24 07:14:15;;;;;;;7.10;4.32;;;20.60;33.40;;;;;;5095035;28;20101;-61
2021/03/24 07:17:08;;;;;;;8.30;4.40;;;20.60;33.40;;;;;;5094922;28;20499;-61
2021/03/24 07:20:03;;;;;;;7.57;4.28;;;20.60;33.30;;;;;;5095001;28;20491;-61
2021/03/24 07:23:16;;;;;;;8.82;4.00;;;20.60;33.30;;;;;;5094684;28;20039;-61
2021/03/24 07:25:46;;;;;;;8.13;4.38;;;20.70;33.30;;;;;;5032412;28;20027;-60
2021/03/24 07:28:36;;;;;;;8.15;4.43;;;20.70;33.30;;;;;;5032432;28;20037;-61
2021/03/24 07:31:35;;;;;;;7.18;3.65;;;20.70;33.30;;;;;;5073274;28;20078;-61
2021/03/24 07:34:25;;;;;;;8.18;4.65;;;20.70;33.30;;;;;;5094934;28;20032;-61
2021/03/24 07:37:16;;;;;;;8.75;5.05;;;20.70;33.20;;;;;;5094371;28;20024;-61
2021/03/24 07:40:07;;;;;;;8.50;4.72;;;20.80;33.20;;;;;;5094623;28;20126;-61
2021/03/24 07:43:11;;;;;;;7.90;4.75;;;20.80;33.20;;;;;;5094709;28;20070;-61
2021/03/24 07:45:56;;;;;;;6.20;3.58;;;20.80;33.20;;;;;;5094415;28;20074;-61
2021/03/24 07:48:40;;;;;;;7.82;4.15;;;20.80;33.20;;;;;;5094341;28;20024;-61
2021/03/24 07:51:58;;;;;;;8.13;4.07;;;20.90;33.10;;;;;;5094156;28;20099;-61
2021/03/24 07:54:46;;;;;;;7.82;4.40;;;20.90;33.20;;;;;;5094448;28;20031;-61
2021/03/24 07:57:35;;;;;;;8.82;4.32;;;20.90;33.20;;;;;;5096175;28;20024;-60
2021/03/24 08:00:19;;;;;;;8.52;4.47;;;20.90;33.10;;;;;;5101422;28;20086;-61
2021/03/24 08:03:03;;;;;;;7.43;4.60;;;21.00;33.10;;;;;;5099309;28;20141;-61
2021/03/24 08:05:50;;;;;;;7.25;3.72;;;21.00;33.10;;;;;;5097396;28;20028;-61
2021/03/24 08:08:43;;;;;;;8.25;4.45;;;21.00;33.10;;;;;;5094634;28;20043;-61
2021/03/24 08:11:18;;;;;;;7.15;4.07;;;21.00;33.10;;;;;;5094026;28;20391;-61
2021/03/24 08:13:50;;;;;;;6.97;3.97;;;21.00;33.10;;;;;;5094228;28;20063;-61
2021/03/24 08:16:27;;;;;;;7.38;3.60;;;21.00;33.10;;;;;;5094127;28;20024;-61
2021/03/24 08:19:21;;;;;;;7.50;3.63;;;21.00;33.10;;;;;;5094247;28;20035;-61
2021/03/24 08:22:34;;;;;;;6.10;3.78;;;21.00;33.10;;;;;;5093662;28;20079;-60
2021/03/24 08:25:17;;;;;;;7.18;4.05;;;21.00;33.10;;;;;;5093286;28;20424;-60
2021/03/24 08:27:50;;;;;;;7.75;3.92;;;21.10;33.10;;;;;;5093699;28;20031;-61
2021/03/24 08:30:23;;;;;;;9.68;4.13;;;21.10;33.10;;;;;;5093994;28;20046;-60
2021/03/24 08:33:12;;;;;;;6.47;3.50;;;21.10;33.10;;;;;;5093295;28;20020;-61
2021/03/24 08:36:05;;;;;;;6.50;3.75;;;21.10;33.10;;;;;;5093445;28;20518;-61
2021/03/24 08:38:39;;;;;;;7.13;4.00;;;21.10;33.10;;;;;;5093641;28;20032;-60
2021/03/24 08:41:07;;;;;;;9.27;3.55;;;21.10;33.00;;;;;;5092816;28;20081;-60
2021/03/24 08:43:50;;;;;;;8.02;3.63;;;21.10;33.10;;;;;;5093460;28;20055;-61
2021/03/24 08:46:35;;;;;;;8.73;3.92;;;21.10;33.10;;;;;;5093362;28;20020;-61
2021/03/24 08:49:13;;;;;;;8.38;4.57;;;21.20;33.10;;;;;;5093432;28;20035;-60
2021/03/24 08:51:50;;;;;;;7.35;3.75;;;21.20;33.10;;;;;;5093504;28;20024;-60
2021/03/24 08:54:34;;;;;;;6.90;3.92;;;21.20;33.00;;;;;;5093435;28;20491;-61
2021/03/24 08:57:18;;;;;;;6.93;3.53;;;21.20;33.00;;;;;;5093427;28;20024;-61
2021/03/24 08:59:50;;;;;;;9.32;4.05;;;21.20;33.10;;;;;;5093448;28;20112;-61
2021/03/24 09:02:46;;;;;;;6.22;3.50;;;21.20;33.10;;;;;;5093544;28;20098;-61
2021/03/24 09:05:33;;;;;;;6.68;3.72;;;21.20;33.10;;;;;;5093111;28;20520;-60
2021/03/24 09:08:28;;;;;;;7.35;3.60;;;21.30;33.10;;;;;;5091589;28;20115;-60
2021/03/24 09:11:15;;;;;;;8.05;3.70;;;21.20;33.10;;;;;;5070656;28;20460;-60
2021/03/24 09:14:01;;;;;;;7.53;3.58;;;21.20;33.10;;;;;;5093385;28;20441;-60
2021/03/24 09:16:49;;;;;;;6.90;3.75;;;21.20;33.10;;;;;;5093147;28;20107;-60
2021/03/24 09:19:37;;;;;;;6.93;3.60;;;21.30;33.10;;;;;;5093251;28;20365;-60
2021/03/24 09:22:38;;;;;;;6.50;3.33;;;21.30;33.00;;;;;;5093257;28;20408;-61
2021/03/24 09:25:32;;;;;;;7.45;4.10;;;21.30;33.10;;;;;;5092971;28;20024;-61
2021/03/24 09:28:37;;;;;;;6.57;3.75;;;21.30;33.10;;;;;;5093071;28;20061;-61
2021/03/24 09:31:21;;;;;;;7.25;3.72;;;21.40;33.00;;;;;;5093247;28;20027;-61
2021/03/24 09:33:49;;;;;;;7.38;3.88;;;21.40;33.00;;;;;;5092967;28;20494;-60
2021/03/24 09:36:18;;;;;;;7.10;3.20;;;21.40;33.00;;;;;;5092955;28;20468;-61
2021/03/24 09:38:45;;;;;;;7.50;3.50;;;21.40;33.00;;;;;;5092370;28;20030;-61
2021/03/24 09:41:39;;;;;;;7.53;3.97;;;21.40;33.00;;;;;;5090883;28;20368;-61
2021/03/24 09:44:29;;;;;;;6.50;3.40;;;21.40;33.00;;;;;;5092444;28;20031;-61
2021/03/24 09:46:56;;;;;;;7.00;3.45;;;21.50;33.00;;;;;;5092654;28;20020;-61
2021/03/24 09:49:30;;;;;;;5.85;3.17;;;21.50;33.00;;;;;;5092722;28;20407;-61
2021/03/24 09:52:08;;;;;;;6.10;3.30;;;21.50;33.00;;;;;;5093270;28;20103;-60
2021/03/24 09:54:34;;;;;;;7.32;3.40;;;21.50;33.00;;;;;;5096697;28;20024;-61
2021/03/24 09:57:16;;;;;;;6.40;3.75;;;21.50;32.90;;;;;;5097009;28;20039;-61
2021/03/24 09:59:50;;;;;;;6.32;3.22;;;21.50;32.90;;;;;;5096546;28;20028;-61
2021/03/24 10:02:28;;;;;;;7.13;3.60;;;21.50;32.90;;;;;;5096444;28;20032;-60
2021/03/24 10:05:00;;;;;;;8.77;3.55;;;21.50;32.90;;;;;;5096746;28;20032;-61
2021/03/24 10:07:32;;;;;;;6.35;3.60;;;21.50;32.90;;;;;;5096374;28;20109;-61
2021/03/24 10:10:23;;;;;;;6.82;3.47;;;21.60;32.90;;;;;;5094984;28;20020;-61
2021/03/24 10:13:02;;;;;;;7.03;3.35;;;21.50;32.90;;;;;;5096311;28;20158;-60
2021/03/24 10:15:37;;;;;;;5.93;2.92;;;21.60;32.90;;;;;;5096426;28;20036;-60
2021/03/24 10:18:27;;;;;;;6.28;3.30;;;21.60;32.90;;;;;;5096157;28;20093;-59
2021/03/24 10:21:10;;;;;;;6.72;3.30;;;21.60;32.80;;;;;;5095890;28;20101;-60
2021/03/24 10:23:41;;;;;;;6.30;3.15;;;21.70;32.80;;;;;;5095780;28;20073;-60
2021/03/24 10:26:18;;;;;;;7.20;3.47;;;21.70;32.80;;;;;;5095696;28;20373;-60
2021/03/24 10:28:52;;;;;;;6.72;3.70;;;21.70;32.80;;;;;;5095618;28;20070;-60
2021/03/24 10:31:39;;;;;;;5.72;3.08;;;21.70;32.70;;;;;;5095711;28;20531;-60
2021/03/24 10:34:13;;;;;;;5.85;3.00;;;21.70;32.80;;;;;;5095751;28;20070;-60
2021/03/24 10:37:04;;;;;;;5.88;2.90;;;21.80;32.70;;;;;;5095488;28;20040;-60
2021/03/24 10:39:37;;;;;;;5.97;3.10;;;21.80;32.70;;;;;;5096084;28;20031;-60
2021/03/24 10:42:26;;;;;;;7.00;3.72;;;21.80;32.70;;;;;;5077834;28;20028;-60
2021/03/24 10:45:18;;;;;;;7.95;3.72;;;21.80;32.70;;;;;;5095399;28;20054;-60
2021/03/24 10:47:54;;;;;;;5.65;3.00;;;21.90;32.70;;;;;;5095380;28;20020;-60
2021/03/24 10:50:33;;;;;;;7.05;3.13;;;21.90;32.70;;;;;;5095752;28;20020;-60
2021/03/24 10:52:58;;;;;;;7.85;3.53;;;21.90;32.70;;;;;;5095319;28;20438;-60
2021/03/24 10:55:26;;;;;;;6.43;3.15;;;21.90;32.70;;;;;;5095424;28;20024;-60
2021/03/24 10:57:51;;;;;;;5.25;2.78;;;21.90;32.70;;;;;;5095216;28;20042;-60
2021/03/24 11:00:36;;;;;;;6.43;3.08;;;21.90;32.60;;;;;;5095241;28;20472;-60
2021/03/24 11:03:11;;;;;;;;;;;21.90;32.60;;;;;;5095525;28;20059;-59
2021/03/24 11:05:48;;;;;;;;;;;21.90;32.60;;;;;;5096364;28;19930;-60
2021/03/24 11:08:36;;;;;;;7.50;2.97;;;21.90;32.60;;;;;;5094843;28;19929;-60
2021/03/24 11:11:21;;;;;;;6.63;2.70;;;22.00;32.60;;;;;;5095134;28;20021;-60
2021/03/24 11:13:49;;;;;;;8.27;3.15;;;22.00;32.60;;;;;;5095252;28;20031;-60
2021/03/24 11:16:26;;;;;;;6.20;3.17;;;22.00;32.50;;;;;;5095222;28;20099;-60
2021/03/24 11:18:56;;;;;;;6.22;3.13;;;22.00;32.50;;;;;;5095092;28;20537;-60
2021/03/24 11:21:48;;;;;;;5.47;2.88;;;22.00;32.50;;;;;;5094739;28;20127;-60
2021/03/24 11:24:18;;;;;;;5.25;2.92;;;22.00;32.40;;;;;;5091742;28;20106;-59
2021/03/24 11:27:05;;;;;;;6.45;3.05;;;22.10;32.40;;;;;;5094813;28;20032;-59
2021/03/24 11:29:33;;;;;;;7.47;3.22;;;22.10;32.40;;;;;;5093559;28;20131;-60
2021/03/24 11:32:06;;;;;;;6.28;2.72;;;22.10;32.40;;;;;;5095307;28;20059;-60
2021/03/24 11:34:49;;;;;;;5.93;3.43;;;22.20;32.30;;;;;;5094654;28;20081;-60
2021/03/24 11:37:18;;;;;;;6.13;2.85;;;22.20;32.30;;;;;;5094995;28;20373;-60
2021/03/24 11:39:47;;;;;;;5.00;2.78;;;22.20;32.30;;;;;;5094460;28;20020;-60
2021/03/24 11:42:19;;;;;;;6.07;3.00;;;22.20;32.20;;;;;;5094712;28;20115;-60
2021/03/24 11:44:47;;;;;;;5.05;2.97;;;22.30;32.20;;;;;;5094500;28;20016;-60
2021/03/24 11:47:42;;;;;;;5.18;2.92;;;22.30;32.20;;;;;;5094253;28;20046;-59
2021/03/24 11:50:14;;;;;;;5.60;2.95;;;22.40;32.10;;;;;;5094897;28;20058;-60
2021/03/24 11:52:51;;;;;;;6.18;2.83;;;22.40;32.10;;;;;;5094239;28;20020;-60
2021/03/24 11:55:47;;;;;;;5.35;2.95;;;22.50;32.00;;;;;;5094288;28;20476;-60
2021/03/24 11:58:28;;;;;;;5.88;2.83;;;22.50;32.00;;;;;;5094478;28;20031;-60
2021/03/24 12:01:02;;;;;;;5.35;2.90;;;22.50;32.00;;;;;;5094150;28;20040;-60
2021/03/24 12:04:01;;;;;;;5.22;2.47;;;22.50;32.00;;;;;;5094041;28;20024;-60
2021/03/24 12:06:39;;;;;;;5.85;2.42;;;22.60;31.90;;;;;;5093913;28;20430;-60
2021/03/24 12:09:10;;;;;;;5.82;3.03;;;22.60;31.90;;;;;;5094369;28;20028;-60
2021/03/24 12:11:39;;;;;;;6.57;2.83;;;22.70;31.90;;;;;;5095771;28;20029;-60
2021/03/24 12:14:27;;;;;;;5.78;2.70;;;22.70;31.80;;;;;;5092818;28;20024;-60
2021/03/24 12:17:00;;;;;;;5.75;2.80;;;22.80;31.80;;;;;;5094969;28;20115;-60
2021/03/24 12:19:45;;;;;;;5.82;2.75;;;22.80;31.70;;;;;;5094261;28;20016;-60
2021/03/24 12:22:27;;;;;;;5.30;2.70;;;22.90;31.70;;;;;;5093586;28;20123;-61
2021/03/24 12:25:01;;;;;;;5.72;2.55;;;22.90;31.60;;;;;;5095050;28;20020;-59
2021/03/24 12:27:32;;;;;;;5.93;2.90;;;22.90;31.60;;;;;;5093846;28;20028;-59
2021/03/24 12:30:37;;;;;;;7.07;3.30;;;22.90;31.50;;;;;;5093640;28;20024;-60
2021/03/24 12:33:22;;;;;;;4.90;2.58;;;23.00;31.50;;;;;;5093625;28;20103;-60
2021/03/24 12:36:12;;;;;;;5.63;2.63;;;23.00;31.50;;;;;;5094130;28;20376;-60
2021/03/24 12:39:02;;;;;;;5.93;3.17;;;23.00;31.50;;;;;;5093658;28;20043;-60
2021/03/24 12:41:32;;;;;;;5.40;2.80;;;23.00;31.40;;;;;;5101192;28;20030;-61
2021/03/24 12:44:34;;;;;;;5.63;2.65;;;23.10;31.50;;;;;;5102937;28;20499;-61
2021/03/24 12:47:06;;;;;;;6.78;3.15;;;23.00;31.50;;;;;;5091025;28;20116;-61
2021/03/24 12:49:38;;;;;;;4.68;2.50;;;23.10;31.50;;;;;;5094286;28;20042;-61
2021/03/24 12:52:32;;;;;;;5.55;2.92;;;23.00;31.40;;;;;;5101687;28;20020;-61
2021/03/24 12:54:58;;;;;;;4.40;2.45;;;23.00;31.50;;;;;;5094225;28;20475;-60
2021/03/24 12:58:20;;;;;;;5.30;2.53;;;23.00;31.50;;;;;;5093796;28;20081;-61
2021/03/24 13:00:56;;;;;;;5.53;2.50;;;23.00;31.50;;;;;;5030791;28;20385;-60
2021/03/24 13:03:58;;;;;;;5.55;2.80;;;23.00;31.50;;;;;;5031069;28;20029;-60
2021/03/24 13:06:43;;;;;;;7.47;3.55;;;23.00;31.70;;;;;;5087747;28;20123;-60
2021/03/24 13:09:25;;;;;;;6.45;3.40;;;22.90;31.70;;;;;;5093516;28;20024;-60
2021/03/24 13:12:16;;;;;;;5.63;2.70;;;22.80;31.80;;;;;;5093221;28;20026;-60
2021/03/24 13:15:03;;;;;;;6.03;3.05;;;22.80;31.90;;;;;;5092977;28;20035;-60
2021/03/24 13:17:40;;;;;;;5.10;2.70;;;22.70;32.00;;;;;;5093251;28;20036;-60
2021/03/24 13:20:39;;;;;;;4.60;2.47;;;22.70;32.10;;;;;;5092825;28;20044;-60
2021/03/24 13:23:17;;;;;;;5.40;2.70;;;22.60;32.10;;;;;;5092983;28;20044;-60
2021/03/24 13:25:52;;;;;;;5.45;2.42;;;22.50;32.20;;;;;;5092865;28;20020;-60
2021/03/24 13:28:31;;;;;;;5.10;2.83;;;22.50;32.30;;;;;;5095933;28;20024;-60
2021/03/24 13:31:03;;;;;;;4.60;2.65;;;22.50;32.30;;;;;;5096934;28;20020;-60
2021/03/24 13:33:53;;;;;;;5.63;2.70;;;22.50;32.30;;;;;;5097127;28;20111;-60
2021/03/24 13:36:33;;;;;;;6.20;3.08;;;22.40;32.40;;;;;;5097279;28;20043;-60
2021/03/24 13:39:13;;;;;;;5.93;2.60;;;22.40;32.50;;;;;;5096909;28;20077;-59
2021/03/24 13:41:43;;;;;;;5.75;2.60;;;22.30;32.50;;;;;;5096702;28;20495;-60